createdAt,value
2018-02-17T00:00:45.709Z,87.59
2018-02-17T00:01:48.211Z,87.34
2018-02-17T00:02:50.686Z,87.46
2018-02-17T00:03:53.178Z,87.18
2018-02-17T00:04:55.691Z,86.90
2018-02-17T00:05:58.178Z,86.76
2018-02-17T00:07:00.669Z,87.01
2018-02-17T00:08:03.171Z,87.42
2018-02-17T00:09:05.673Z,87.94
2018-02-17T00:10:08.155Z,88.22
2018-02-17T00:11:10.643Z,87.99
2018-02-17T00:12:13.134Z,87.55
2018-02-17T00:13:15.612Z,87.74
2018-02-17T00:14:18.102Z,87.55
2018-02-17T00:15:20.609Z,87.25
2018-02-17T00:16:23.079Z,87.00
2018-02-17T00:17:25.564Z,86.84
2018-02-17T00:18:28.050Z,86.65
2018-02-17T00:19:30.528Z,86.70
2018-02-17T00:20:33.015Z,86.42
2018-02-17T00:21:35.503Z,86.53
2018-02-17T00:22:37.986Z,86.63
2018-02-17T00:23:40.528Z,86.57
2018-02-17T00:24:43.013Z,86.66
2018-02-17T00:25:45.497Z,86.69
2018-02-17T00:26:47.973Z,86.59
2018-02-17T00:27:50.462Z,86.62
2018-02-17T00:28:52.935Z,86.85
2018-02-17T00:29:55.437Z,86.40
2018-02-17T00:30:57.927Z,86.60
2018-02-17T00:32:00.414Z,86.97
2018-02-17T00:33:02.904Z,87.18
2018-02-17T00:34:05.410Z,87.46
2018-02-17T00:35:07.913Z,86.87
2018-02-17T00:36:10.407Z,86.67
2018-02-17T00:37:12.905Z,86.40
2018-02-17T00:38:15.465Z,86.17
2018-02-17T00:39:18.024Z,86.46
2018-02-17T00:40:20.513Z,86.69
2018-02-17T00:41:23.028Z,86.21
2018-02-17T00:42:25.500Z,86.02
2018-02-17T00:43:27.975Z,86.10
2018-02-17T00:44:30.448Z,86.40
2018-02-17T00:45:32.944Z,86.54
2018-02-17T00:46:35.462Z,86.80
2018-02-17T00:47:37.948Z,86.67
2018-02-17T00:48:40.459Z,86.74
2018-02-17T00:49:42.941Z,86.69
2018-02-17T00:50:45.431Z,86.57
2018-02-17T00:51:47.909Z,86.36
2018-02-17T00:52:50.391Z,86.40
2018-02-17T00:53:52.867Z,86.00
2018-02-17T00:54:55.402Z,85.95
2018-02-17T00:55:57.895Z,85.92
2018-02-17T00:57:00.378Z,85.69
2018-02-17T00:58:02.861Z,85.04
2018-02-17T00:59:05.345Z,85.25
2018-02-17T01:00:07.819Z,85.41
2018-02-17T01:01:10.295Z,85.20
2018-02-17T01:02:12.767Z,85.01
2018-02-17T01:03:15.258Z,84.85
2018-02-17T01:04:17.757Z,84.87
2018-02-17T01:05:20.259Z,84.77
2018-02-17T01:06:22.738Z,84.39
2018-02-17T01:07:25.233Z,84.31
2018-02-17T01:08:27.718Z,83.73
2018-02-17T01:09:30.220Z,83.85
2018-02-17T01:10:32.695Z,83.83
2018-02-17T01:11:35.167Z,84.13
2018-02-17T01:12:37.661Z,84.09
2018-02-17T01:13:40.146Z,83.81
2018-02-17T01:14:42.634Z,84.03
2018-02-17T01:15:45.130Z,83.94
2018-02-17T01:16:47.629Z,83.70
2018-02-17T01:17:50.114Z,83.76
2018-02-17T01:18:52.599Z,84.28
2018-02-17T01:19:55.080Z,84.54
2018-02-17T01:20:57.551Z,84.43
2018-02-17T01:22:00.037Z,83.96
2018-02-17T01:23:02.522Z,83.65
2018-02-17T01:24:05.017Z,83.15
2018-02-17T01:25:07.493Z,82.52
2018-02-17T01:26:10.002Z,83.13
2018-02-17T01:27:12.523Z,83.16
2018-02-17T01:28:15.095Z,83.46
2018-02-17T01:29:17.568Z,83.83
2018-02-17T01:30:20.040Z,83.67
2018-02-17T01:31:22.576Z,83.78
2018-02-17T01:32:25.049Z,83.99
2018-02-17T01:33:27.542Z,83.96
2018-02-17T01:34:30.034Z,83.96
2018-02-17T01:35:32.508Z,84.24
2018-02-17T01:36:34.980Z,84.18
2018-02-17T01:37:37.529Z,83.64
2018-02-17T01:38:40.014Z,83.31
2018-02-17T01:39:42.489Z,82.54
2018-02-17T01:40:44.959Z,82.25
2018-02-17T01:41:47.444Z,82.37
2018-02-17T01:42:49.920Z,82.19
2018-02-17T01:43:52.411Z,82.37
2018-02-17T01:44:54.910Z,82.74
2018-02-17T01:45:57.402Z,82.79
2018-02-17T01:46:59.876Z,82.36
2018-02-17T01:48:02.347Z,82.40
2018-02-17T01:49:04.845Z,82.58
2018-02-17T07:57:40.998Z,68.96
2018-02-17T07:58:43.463Z,68.60
2018-02-17T07:59:45.946Z,68.83
2018-02-17T08:00:48.441Z,68.73
2018-02-17T08:01:50.929Z,68.77
2018-02-17T08:02:53.399Z,68.64
2018-02-17T08:03:55.887Z,68.82
2018-02-17T08:04:58.351Z,68.69
2018-02-17T08:06:00.836Z,69.11
2018-02-17T08:07:03.321Z,68.37
2018-02-17T08:08:05.810Z,68.44
2018-02-17T08:09:08.283Z,68.59
2018-02-17T08:10:10.800Z,68.92
2018-02-17T08:11:13.495Z,68.73
2018-02-17T08:12:16.007Z,68.11
2018-02-17T08:13:18.466Z,68.23
2018-02-17T08:14:20.935Z,68.65
2018-02-17T08:15:23.485Z,67.80
2018-02-17T08:16:25.946Z,67.14
2018-02-17T08:17:28.466Z,67.38
2018-02-17T08:18:30.942Z,67.98
2018-02-17T08:19:33.407Z,67.80
2018-02-17T08:20:35.904Z,67.64
2018-02-17T08:21:38.379Z,67.75
2018-02-17T08:22:40.847Z,67.97
2018-02-17T08:23:43.682Z,68.01
2018-02-17T08:24:46.166Z,67.98
2018-02-17T08:25:48.679Z,68.29
2018-02-17T08:26:51.161Z,68.08
2018-02-17T08:27:53.632Z,67.86
2018-02-17T08:28:56.109Z,68.51
2018-02-17T08:29:58.593Z,67.95
2018-02-17T08:31:01.109Z,67.35
2018-02-17T08:32:03.672Z,66.77
2018-02-17T08:33:06.139Z,66.80
2018-02-17T08:34:08.615Z,67.15
2018-02-17T08:35:11.096Z,66.64
2018-02-17T08:36:13.599Z,67.06
2018-02-17T08:37:16.075Z,66.51
2018-02-17T08:38:18.564Z,66.88
2018-02-17T08:39:21.039Z,67.42
2018-02-17T08:40:23.498Z,67.39
2018-02-17T08:41:26.004Z,67.15
2018-02-17T08:42:28.484Z,67.21
2018-02-17T08:43:30.959Z,67.39
2018-02-17T08:44:33.452Z,67.26
2018-02-17T08:45:35.956Z,67.21
2018-02-17T08:46:38.507Z,67.06
2018-02-17T08:47:40.980Z,67.07
2018-02-17T08:48:43.521Z,66.74
2018-02-17T08:49:45.997Z,65.98
2018-02-17T08:50:48.459Z,65.06
2018-02-17T08:51:50.948Z,64.72
2018-02-17T08:52:53.419Z,65.22
2018-02-17T08:53:55.933Z,65.19
2018-02-17T08:54:58.412Z,65.19
2018-02-17T08:56:00.889Z,65.35
2018-02-17T08:57:03.387Z,64.67
2018-02-17T08:58:05.890Z,64.87
2018-02-17T08:59:08.386Z,65.10
2018-02-17T09:00:10.861Z,64.50
2018-02-17T09:01:13.347Z,64.60
2018-02-17T09:02:15.827Z,64.53
2018-02-17T09:03:18.299Z,64.11
2018-02-17T09:04:20.789Z,64.37
2018-02-17T09:05:23.273Z,64.28
2018-02-17T09:06:25.762Z,65.05
2018-02-17T09:07:28.279Z,63.51
2018-02-17T09:08:30.759Z,63.00
2018-02-17T09:09:33.277Z,62.52
2018-02-17T09:10:48.577Z,62.05
2018-02-17T09:11:51.070Z,61.55
2018-02-17T09:12:53.572Z,61.11
2018-02-17T09:13:56.057Z,62.40
2018-02-17T09:14:58.545Z,61.81
2018-02-17T09:16:01.025Z,61.69
2018-02-17T09:17:03.566Z,61.67
2018-02-17T09:18:06.181Z,61.84
2018-02-17T09:19:08.679Z,61.78
2018-02-17T09:20:11.176Z,62.11
2018-02-17T09:21:13.656Z,63.53
2018-02-17T09:22:16.164Z,61.92
2018-02-17T09:23:18.666Z,61.89
2018-02-17T09:24:21.157Z,61.97
2018-02-17T09:25:23.635Z,62.39
2018-02-17T09:26:26.117Z,61.41
2018-02-17T09:27:28.634Z,60.83
2018-02-17T09:28:31.219Z,60.69
2018-02-17T09:29:33.727Z,60.57
2018-02-17T09:30:36.928Z,59.53
2018-02-17T09:31:39.741Z,60.26
2018-02-17T09:32:42.295Z,60.26
2018-02-17T09:33:44.849Z,59.54
2018-02-17T09:34:47.353Z,58.64
2018-02-17T09:35:49.841Z,58.79
2018-02-17T09:36:52.320Z,58.65
2018-02-17T09:37:54.821Z,58.70
2018-02-17T09:38:57.391Z,57.59
2018-02-17T09:39:59.872Z,59.66
2018-02-17T09:41:02.458Z,58.68
2018-02-17T09:42:04.991Z,58.32
2018-02-17T09:43:07.475Z,58.79
2018-02-17T09:44:10.031Z,59.02
2018-02-17T09:45:12.513Z,58.73
2018-02-17T09:46:15.011Z,58.72
2018-02-17T09:47:17.516Z,58.51
2018-02-17T09:48:20.017Z,58.56
2018-02-17T09:49:22.519Z,57.95
2018-02-17T09:50:24.993Z,58.10
2018-02-17T09:51:27.496Z,58.35
2018-02-17T09:52:30.060Z,58.25
2018-02-17T09:53:32.541Z,58.33
2018-02-17T09:54:35.035Z,58.67
2018-02-17T09:55:37.507Z,58.52
2018-02-17T09:56:40.047Z,58.58
2018-02-17T09:57:42.624Z,58.43
2018-02-17T09:58:45.163Z,57.90
2018-02-17T09:59:47.667Z,57.44
2018-02-17T10:00:50.143Z,57.74
2018-02-17T10:01:52.634Z,57.44
2018-02-17T10:02:55.117Z,57.47
2018-02-17T10:03:57.623Z,57.44
2018-02-17T10:05:00.126Z,57.43
2018-02-17T10:06:02.603Z,57.21
2018-02-17T10:07:05.100Z,56.79
2018-02-17T10:08:07.586Z,56.46
2018-02-17T10:09:10.125Z,56.63
2018-02-17T10:10:12.633Z,56.54
2018-02-17T10:11:15.130Z,56.17
2018-02-17T10:12:17.628Z,56.21
2018-02-17T10:13:20.099Z,55.71
2018-02-17T10:14:22.594Z,55.89
2018-02-17T10:15:25.112Z,54.96
2018-02-17T10:16:27.590Z,55.44
2018-02-17T10:17:30.068Z,55.31
2018-02-17T10:18:32.557Z,55.12
2018-02-17T10:19:35.345Z,54.50
2018-02-17T10:20:37.865Z,54.15
2018-02-17T10:21:40.489Z,53.58
2018-02-17T10:22:43.070Z,53.56
2018-02-17T10:23:45.552Z,53.94
2018-02-17T10:24:48.041Z,53.72
2018-02-17T10:25:50.532Z,52.52
2018-02-17T10:26:53.081Z,52.31
2018-02-17T10:27:55.567Z,51.50
2018-02-17T10:28:58.061Z,51.86
2018-02-17T10:30:00.554Z,52.03
2018-02-17T10:31:03.044Z,51.94
2018-02-17T10:32:05.530Z,51.61
2018-02-17T10:33:08.033Z,52.90
2018-02-17T10:34:10.512Z,53.22
2018-02-17T10:35:12.997Z,52.80
2018-02-17T10:36:15.514Z,51.86
2018-02-17T10:37:18.006Z,51.96
2018-02-17T10:38:20.496Z,51.14
2018-02-17T10:39:22.963Z,51.36
2018-02-17T10:40:25.454Z,51.10
2018-02-17T10:41:27.976Z,50.41
2018-02-17T10:42:30.464Z,51.42
2018-02-17T10:43:32.965Z,52.27
2018-02-17T10:44:35.432Z,51.92
2018-02-17T10:45:37.943Z,51.05
2018-02-17T10:46:40.506Z,51.87
2018-02-17T10:47:43.002Z,51.65
2018-02-17T10:48:45.498Z,51.91
2018-02-17T10:49:47.971Z,52.15
2018-02-17T10:50:50.439Z,52.03
2018-02-17T10:51:52.928Z,51.45
2018-02-17T10:52:55.410Z,51.75
2018-02-17T10:53:57.901Z,52.28
2018-02-17T10:55:00.390Z,52.35
2018-02-17T10:56:02.886Z,51.84
2018-02-17T10:57:05.385Z,50.92
2018-02-17T10:58:07.890Z,50.80
2018-02-17T10:59:10.361Z,50.70
2018-02-17T11:00:12.878Z,49.46
2018-02-17T11:01:15.383Z,48.92
2018-02-17T11:02:17.891Z,48.97
2018-02-17T11:03:20.369Z,48.77
2018-02-17T11:04:22.865Z,48.55
2018-02-17T11:05:25.339Z,48.38
2018-02-17T11:06:27.836Z,47.93
2018-02-17T11:07:30.347Z,47.16
2018-02-17T11:08:32.816Z,47.49
2018-02-17T11:09:35.284Z,45.67
2018-02-17T11:10:37.777Z,45.83
2018-02-17T11:11:40.424Z,46.48
2018-02-17T11:12:42.934Z,47.06
2018-02-17T11:13:45.424Z,47.16
2018-02-17T11:14:48.004Z,47.20
2018-02-17T11:15:50.472Z,46.74
2018-02-17T11:16:53.023Z,47.62
2018-02-17T11:17:55.503Z,46.27
2018-02-17T11:18:57.972Z,45.54
2018-02-17T11:20:00.448Z,45.72
2018-02-17T11:21:02.918Z,44.62
2018-02-17T11:22:05.414Z,44.84
2018-02-17T11:23:07.907Z,46.09
2018-02-17T11:24:10.384Z,45.51
2018-02-17T11:25:12.884Z,45.26
2018-02-17T11:26:15.461Z,44.53
2018-02-17T11:27:17.951Z,44.66
2018-02-17T11:28:20.469Z,45.56
2018-02-17T11:29:22.954Z,42.44
2018-02-17T11:30:25.446Z,40.81
2018-02-17T11:31:27.938Z,40.91
2018-02-17T11:32:30.427Z,40.65
2018-02-17T11:33:32.920Z,40.57
2018-02-17T11:34:35.410Z,39.09
2018-02-17T11:35:37.894Z,40.63
2018-02-17T11:36:40.471Z,40.48
2018-02-17T11:37:42.992Z,38.94
2018-02-17T11:38:45.488Z,36.73
2018-02-17T11:39:47.961Z,37.62
2018-02-17T11:40:50.478Z,36.61
2018-02-17T11:41:52.950Z,36.64
2018-02-17T11:42:55.435Z,38.89
2018-02-17T11:43:57.945Z,38.26
2018-02-17T11:45:00.431Z,38.18
2018-02-17T11:46:02.899Z,37.56
2018-02-17T11:47:05.393Z,37.22
2018-02-17T11:48:07.877Z,36.96
2018-02-17T11:49:10.369Z,36.55
2018-02-17T11:50:12.904Z,37.32
2018-02-17T11:51:15.379Z,37.89
2018-02-17T11:52:17.860Z,38.11
2018-02-17T11:53:20.339Z,37.29
2018-02-17T11:54:22.863Z,37.32
2018-02-17T11:55:25.373Z,36.88
2018-02-17T11:56:27.871Z,35.35
2018-02-17T11:57:30.347Z,34.97
2018-02-17T11:58:32.833Z,34.95
2018-02-17T11:59:35.346Z,35.78
2018-02-17T12:00:37.879Z,35.51
2018-02-17T12:01:40.351Z,36.97
2018-02-17T12:02:42.837Z,35.99
2018-02-17T12:03:45.325Z,34.96
2018-02-17T12:04:47.827Z,37.03
2018-02-17T12:05:50.295Z,36.64
2018-02-17T12:06:52.793Z,36.20
2018-02-17T12:07:55.274Z,36.62
2018-02-17T12:08:57.823Z,36.03
2018-02-17T12:10:00.370Z,36.23
2018-02-17T12:11:02.837Z,37.83
2018-02-17T12:12:05.336Z,38.00
2018-02-17T12:13:07.830Z,37.92
2018-02-17T12:14:10.321Z,37.54
2018-02-17T12:15:12.833Z,38.03
2018-02-17T12:16:15.311Z,38.51
2018-02-17T12:17:17.802Z,39.60
2018-02-17T12:18:20.302Z,39.43
2018-02-17T12:19:22.780Z,38.59
2018-02-17T12:20:25.280Z,39.47
2018-02-17T12:21:27.766Z,40.79
2018-02-17T12:22:30.257Z,40.66
2018-02-17T12:23:32.773Z,40.05
2018-02-17T12:24:35.265Z,38.37
2018-02-17T12:25:37.784Z,38.74
2018-02-17T12:26:40.319Z,38.76
2018-02-17T12:27:42.781Z,39.87
2018-02-17T12:28:45.270Z,39.97
2018-02-17T12:29:47.786Z,40.89
2018-02-17T12:30:50.290Z,40.48
2018-02-17T12:31:52.775Z,41.04
2018-02-17T12:32:56.739Z,41.42
2018-02-17T12:33:59.856Z,40.24
2018-02-17T12:35:02.864Z,39.86
2018-02-17T12:36:05.397Z,40.36
2018-02-17T12:37:07.970Z,40.42
2018-02-17T12:38:10.468Z,39.73
2018-02-17T12:39:13.041Z,39.33
2018-02-17T12:40:15.533Z,39.59
2018-02-17T12:41:18.065Z,39.31
2018-02-17T12:42:20.544Z,41.03
2018-02-17T12:43:23.027Z,40.89
2018-02-17T12:44:25.503Z,38.97
2018-02-17T12:45:28.014Z,38.78
2018-02-17T12:46:30.521Z,37.95
2018-02-17T12:47:33.008Z,37.84
2018-02-17T12:48:35.503Z,37.25
2018-02-17T12:49:38.002Z,36.27
2018-02-17T12:50:40.528Z,36.31
2018-02-17T12:51:43.053Z,36.40
2018-02-17T12:52:45.594Z,33.93
2018-02-17T12:53:48.132Z,34.47
2018-02-17T12:54:50.654Z,32.97
2018-02-17T12:55:53.143Z,34.02
2018-02-17T12:56:55.631Z,32.22
2018-02-17T12:57:58.122Z,31.70
2018-02-17T12:59:00.597Z,30.80
2018-02-17T13:00:03.089Z,29.57
2018-02-17T13:01:05.577Z,28.59
2018-02-17T13:02:08.078Z,28.39
2018-02-17T13:03:10.564Z,26.78
2018-02-17T13:04:13.039Z,25.92
2018-02-17T13:05:15.520Z,26.79
2018-02-17T13:06:18.001Z,26.65
2018-02-17T13:07:20.499Z,25.81
2018-02-17T13:08:22.980Z,25.24
2018-02-17T13:09:25.444Z,24.52
2018-02-17T13:10:27.913Z,23.45
2018-02-17T13:11:30.395Z,22.62
2018-02-17T13:12:32.903Z,22.01
2018-02-17T13:13:35.464Z,22.95
2018-02-17T13:14:37.907Z,23.71
2018-02-17T13:15:40.398Z,25.19
2018-02-17T13:16:42.868Z,26.79
2018-02-17T13:17:45.379Z,24.69
2018-02-17T13:18:47.870Z,23.42
2018-02-17T13:19:50.421Z,24.26
2018-02-17T13:20:52.873Z,23.75
2018-02-17T13:21:55.346Z,22.84
2018-02-17T13:22:57.833Z,24.18
2018-02-17T13:24:00.317Z,22.65
2018-02-17T13:25:02.787Z,22.07
2018-02-17T13:26:05.263Z,21.97
2018-02-17T13:27:07.781Z,23.67
2018-02-17T13:28:10.280Z,23.39
2018-02-17T13:29:12.772Z,22.82
2018-02-17T13:30:15.253Z,24.35
2018-02-17T13:31:17.720Z,23.39
2018-02-17T13:32:20.219Z,23.11
2018-02-17T13:33:22.726Z,24.65
2018-02-17T13:34:25.251Z,23.46
2018-02-17T13:35:27.730Z,23.70
2018-02-17T13:36:30.199Z,21.82
2018-02-17T13:37:32.678Z,22.76
2018-02-17T13:38:35.194Z,23.80
2018-02-17T13:39:37.676Z,24.48
2018-02-17T13:40:40.155Z,23.92
2018-02-17T13:41:42.654Z,23.19
2018-02-17T13:42:45.138Z,24.09
2018-02-17T13:43:47.643Z,25.18
2018-02-17T13:44:50.159Z,25.50
2018-02-17T13:45:52.686Z,23.53
2018-02-17T13:46:55.154Z,24.57
2018-02-17T13:47:57.637Z,24.79
2018-02-17T13:49:00.140Z,25.19
2018-02-17T13:50:02.633Z,24.04
2018-02-17T13:51:05.114Z,22.92
2018-02-17T13:52:07.597Z,21.66
2018-02-17T13:53:10.085Z,22.04
2018-02-17T13:54:12.592Z,23.73
2018-02-17T13:55:15.073Z,22.68
2018-02-17T13:56:17.565Z,21.16
2018-02-17T13:57:20.035Z,20.63
2018-02-17T13:58:22.507Z,21.12
2018-02-17T13:59:25.034Z,22.39
2018-02-17T14:00:27.562Z,22.53
2018-02-17T14:01:30.084Z,23.99
2018-02-17T14:02:32.604Z,24.57
2018-02-17T14:03:35.083Z,24.99
2018-02-17T14:04:37.595Z,27.27
2018-02-17T14:05:40.145Z,29.25
2018-02-17T14:06:42.680Z,28.21
2018-02-17T14:07:45.166Z,28.88
2018-02-17T14:08:47.665Z,29.35
2018-02-17T14:09:50.177Z,29.61
2018-02-17T14:10:52.709Z,30.18
2018-02-17T14:11:55.204Z,29.57
2018-02-17T14:12:57.683Z,30.72
2018-02-17T14:14:00.156Z,29.19
2018-02-17T14:15:02.643Z,30.48
2018-02-17T14:16:05.126Z,29.74
2018-02-17T14:17:07.596Z,31.38
2018-02-17T14:18:10.088Z,34.04
2018-02-17T14:19:12.563Z,34.03
2018-02-17T14:20:15.067Z,33.45
2018-02-17T14:21:17.553Z,34.20
2018-02-17T14:22:20.030Z,34.74
2018-02-17T14:23:22.515Z,34.35
2018-02-17T14:24:25.027Z,34.12
2018-02-17T14:25:27.515Z,33.93
2018-02-17T14:26:30.006Z,34.53
2018-02-17T14:27:32.496Z,35.37
2018-02-17T14:28:34.981Z,37.41
2018-02-17T14:29:37.469Z,37.52
2018-02-17T14:30:39.956Z,36.84
2018-02-17T14:31:42.445Z,36.37
2018-02-17T14:32:44.928Z,36.26
2018-02-17T14:33:47.388Z,36.16
2018-02-17T14:34:49.856Z,36.80
2018-02-17T14:35:52.352Z,37.18
2018-02-17T14:36:54.840Z,37.95
2018-02-17T14:37:57.325Z,37.75
2018-02-17T14:38:59.805Z,38.38
2018-02-17T14:40:02.314Z,37.42
2018-02-17T14:41:04.803Z,38.58
2018-02-17T14:42:07.286Z,39.50
2018-02-17T14:43:09.761Z,39.64
2018-02-17T14:44:12.223Z,40.93
2018-02-17T14:45:14.683Z,40.54
2018-02-17T14:46:17.193Z,40.10
2018-02-17T14:47:19.660Z,40.65
2018-02-17T14:48:22.149Z,42.15
2018-02-17T14:49:24.672Z,40.64
2018-02-17T14:50:27.140Z,41.58
2018-02-17T14:51:29.657Z,41.20
2018-02-17T14:52:32.150Z,43.05
2018-02-17T14:53:34.619Z,42.46
2018-02-17T14:54:37.100Z,43.73
2018-02-17T14:55:39.581Z,43.20
2018-02-17T14:56:42.095Z,41.74
2018-02-17T14:57:44.573Z,41.04
2018-02-17T14:58:47.035Z,41.54
2018-02-17T14:59:49.519Z,40.15
2018-02-17T15:00:52.030Z,40.43
2018-02-17T15:01:54.555Z,41.36
2018-02-17T15:02:57.024Z,41.53
2018-02-17T15:03:59.502Z,41.37
2018-02-17T15:05:01.974Z,41.55
2018-02-17T15:06:04.448Z,41.40
2018-02-17T15:07:07.047Z,40.79
2018-02-17T15:08:09.511Z,40.71
2018-02-17T15:09:11.979Z,40.85
2018-02-17T15:10:14.435Z,39.76
2018-02-17T15:11:16.909Z,39.71
2018-02-17T15:12:19.422Z,39.57
2018-02-17T15:13:21.884Z,39.75
2018-02-17T15:14:24.358Z,40.27
2018-02-17T15:15:26.816Z,40.17
2018-02-17T15:16:29.279Z,39.59
2018-02-17T15:17:31.769Z,39.78
2018-02-17T15:18:34.228Z,40.18
2018-02-17T15:19:36.704Z,40.30
2018-02-17T15:20:39.185Z,42.44
2018-02-17T15:21:41.659Z,43.51
2018-02-17T15:22:44.164Z,42.86
2018-02-17T15:23:46.639Z,42.43
2018-02-17T15:24:49.129Z,42.12
2018-02-17T15:25:51.619Z,42.81
2018-02-17T15:26:54.115Z,43.00
2018-02-17T15:27:56.604Z,42.26
2018-02-17T15:28:59.115Z,41.96
2018-02-17T15:30:01.597Z,43.54
2018-02-17T15:31:04.081Z,43.73
2018-02-17T15:32:06.557Z,43.84
2018-02-17T15:33:09.067Z,45.23
2018-02-17T15:34:11.536Z,45.60
2018-02-17T15:35:14.030Z,45.33
2018-02-17T15:36:16.507Z,44.87
2018-02-17T15:37:19.032Z,44.62
2018-02-17T15:38:21.533Z,44.69
2018-02-17T15:39:24.024Z,44.92
2018-02-17T15:40:26.503Z,44.06
2018-02-17T15:41:28.989Z,42.94
2018-02-17T15:42:31.466Z,43.14
2018-02-17T15:43:33.958Z,42.66
2018-02-17T15:44:36.436Z,42.52
2018-02-17T15:45:38.897Z,41.99
2018-02-17T15:46:41.376Z,42.61
2018-02-17T15:47:43.855Z,43.49
2018-02-17T15:48:46.362Z,43.73
2018-02-17T15:49:48.864Z,43.62
2018-02-17T15:50:51.379Z,42.73
2018-02-17T15:51:53.865Z,42.51
2018-02-17T15:52:56.358Z,43.62
2018-02-17T15:53:58.860Z,43.46
2018-02-17T15:55:01.337Z,42.75
2018-02-17T15:56:03.824Z,42.62
2018-02-17T15:57:06.302Z,43.11
2018-02-17T15:58:08.775Z,43.36
2018-02-17T15:59:11.264Z,42.80
2018-02-17T16:00:13.762Z,42.68
2018-02-17T16:01:16.231Z,43.05
2018-02-17T16:02:18.716Z,42.88
2018-02-17T16:03:21.213Z,42.53
2018-02-17T16:04:23.837Z,42.49
2018-02-17T16:05:26.333Z,41.89
2018-02-17T16:06:28.805Z,41.11
2018-02-17T16:07:31.272Z,41.78
2018-02-17T16:08:33.744Z,41.75
2018-02-17T16:09:36.257Z,41.48
2018-02-17T16:10:38.741Z,39.99
2018-02-17T16:11:41.238Z,39.62
2018-02-17T16:12:43.734Z,39.22
2018-02-17T16:13:46.290Z,38.97
2018-02-17T16:14:48.802Z,38.96
2018-02-17T16:15:51.314Z,38.18
2018-02-17T16:16:53.778Z,38.82
2018-02-17T16:17:56.255Z,38.52
2018-02-17T16:18:58.740Z,38.18
2018-02-17T16:20:01.248Z,37.49
2018-02-17T16:21:03.723Z,36.46
2018-02-17T16:22:06.210Z,35.51
2018-02-17T16:23:08.693Z,35.81
2018-02-17T16:24:11.167Z,35.08
2018-02-17T16:25:13.697Z,35.25
2018-02-17T16:26:16.174Z,34.40
2018-02-17T16:27:18.643Z,34.32
2018-02-17T16:28:21.130Z,34.19
2018-02-17T16:29:23.613Z,34.26
2018-02-17T16:30:26.103Z,34.76
2018-02-17T16:31:28.673Z,35.69
2018-02-17T16:32:31.165Z,37.01
2018-02-17T16:33:33.678Z,38.39
2018-02-17T16:34:36.166Z,39.66
2018-02-17T16:35:38.655Z,40.99
2018-02-17T16:36:41.126Z,42.10
2018-02-17T16:37:43.614Z,43.25
2018-02-17T16:38:46.101Z,43.66
2018-02-17T16:39:48.592Z,44.32
2018-02-17T16:40:51.091Z,44.86
2018-02-17T16:41:53.584Z,45.36
2018-02-17T16:42:56.075Z,46.47
2018-02-17T16:43:58.564Z,47.55
2018-02-17T16:45:01.066Z,48.06
2018-02-17T16:46:03.573Z,48.59
2018-02-17T16:47:06.071Z,49.29
2018-02-17T16:48:08.565Z,49.70
2018-02-17T16:49:11.065Z,50.07
2018-02-17T16:50:13.554Z,50.62
2018-02-17T16:51:16.048Z,51.45
2018-02-17T16:52:18.524Z,52.30
2018-02-17T16:53:21.210Z,52.74
2018-02-17T16:54:23.683Z,53.39
2018-02-17T16:55:26.181Z,53.29
2018-02-17T16:56:28.690Z,54.25
2018-02-17T16:57:31.161Z,54.64
2018-02-17T16:58:33.632Z,55.41
2018-02-17T16:59:36.165Z,55.80
2018-02-17T17:00:38.635Z,56.31
2018-02-17T17:01:41.133Z,56.32
2018-02-17T17:02:43.639Z,56.18
2018-02-17T17:03:46.126Z,56.65
2018-02-17T17:04:48.618Z,57.77
2018-02-17T17:05:51.110Z,58.05
2018-02-17T17:06:53.600Z,58.31
2018-02-17T17:07:56.091Z,57.91
2018-02-17T17:08:58.568Z,57.73
2018-02-17T17:10:01.111Z,57.73
2018-02-17T17:11:03.592Z,57.99
2018-02-17T17:12:06.085Z,58.44
2018-02-17T17:13:08.578Z,58.58
2018-02-17T17:14:11.103Z,58.76
2018-02-17T17:15:13.567Z,58.51
2018-02-17T17:16:16.075Z,58.30
2018-02-17T17:17:19.102Z,57.86
2018-02-17T17:18:21.594Z,58.26
2018-02-17T17:19:24.127Z,58.28
2018-02-17T17:20:26.595Z,58.92
2018-02-17T17:21:29.081Z,59.44
2018-02-17T17:22:31.590Z,59.79
2018-02-17T17:23:34.075Z,60.20
2018-02-17T17:24:36.580Z,60.09
2018-02-17T17:25:39.047Z,60.56
2018-02-17T17:26:41.538Z,60.43
2018-02-17T17:27:44.057Z,60.06
2018-02-17T17:28:46.527Z,61.00
2018-02-17T17:29:49.030Z,60.73
2018-02-17T17:30:51.634Z,61.01
2018-02-17T17:31:54.125Z,61.10
2018-02-17T17:32:56.664Z,61.47
2018-02-17T17:33:59.164Z,61.60
2018-02-17T17:35:01.641Z,61.34
2018-02-17T17:36:04.121Z,61.83
2018-02-17T17:37:06.609Z,61.79
2018-02-17T17:38:09.110Z,62.39
2018-02-17T17:39:11.580Z,62.79
2018-02-17T17:40:14.056Z,63.08
2018-02-17T17:41:16.545Z,63.15
2018-02-17T17:42:19.051Z,63.77
2018-02-17T17:43:21.575Z,63.83
2018-02-17T17:44:24.080Z,63.84
2018-02-17T17:45:26.577Z,63.94
2018-02-17T17:46:29.098Z,63.90
2018-02-17T17:47:31.674Z,64.03
2018-02-17T17:48:34.172Z,63.75
2018-02-17T17:49:36.643Z,64.09
2018-02-17T17:50:39.153Z,64.65
2018-02-17T17:51:41.712Z,64.53
2018-02-17T17:52:44.192Z,64.10
2018-02-17T17:53:46.683Z,64.35
2018-02-17T17:54:49.253Z,64.61
2018-02-17T17:55:51.730Z,64.05
2018-02-17T17:56:54.304Z,64.28
2018-02-17T17:57:56.776Z,64.75
2018-02-17T17:58:59.297Z,64.96
2018-02-17T18:00:01.778Z,65.20
2018-02-17T18:01:04.282Z,65.19
2018-02-17T18:02:06.776Z,65.16
2018-02-17T18:03:09.263Z,65.25
2018-02-17T18:04:11.768Z,65.24
2018-02-17T18:05:14.287Z,65.68
2018-02-17T18:06:16.751Z,65.83
2018-02-17T18:07:19.233Z,66.04
2018-02-17T18:08:21.714Z,66.21
2018-02-17T18:09:24.212Z,66.60
2018-02-17T18:10:26.701Z,67.25
2018-02-17T18:11:29.193Z,67.32
2018-02-17T18:12:31.682Z,67.82
2018-02-17T18:13:34.154Z,67.92
2018-02-17T18:14:36.670Z,68.18
2018-02-17T18:15:39.160Z,68.11
2018-02-17T18:16:41.640Z,68.46
2018-02-17T18:17:44.116Z,68.15
2018-02-17T18:18:46.609Z,68.55
2018-02-17T18:19:49.200Z,68.87
2018-02-17T18:20:51.690Z,69.08
2018-02-17T18:21:54.218Z,69.42
2018-02-17T18:22:56.687Z,69.63
2018-02-17T18:23:59.161Z,69.79
2018-02-17T18:25:01.669Z,69.99
2018-02-17T18:26:04.161Z,69.97
2018-02-17T18:27:06.631Z,70.04
2018-02-17T18:28:09.127Z,70.43
2018-02-17T18:29:11.603Z,70.30
2018-02-17T18:30:14.190Z,71.04
2018-02-17T18:31:16.679Z,71.79
2018-02-17T18:32:19.210Z,72.39
2018-02-17T18:33:21.669Z,72.67
2018-02-17T18:34:24.155Z,72.42
2018-02-17T18:35:26.696Z,72.03
2018-02-17T18:36:29.167Z,72.25
2018-02-17T18:37:31.649Z,71.30
2018-02-17T18:38:34.119Z,70.94
2018-02-17T18:39:36.598Z,70.28
2018-02-17T18:40:39.109Z,70.71
2018-02-17T18:41:41.598Z,70.90
2018-02-17T18:42:44.193Z,71.06
2018-02-17T18:43:46.682Z,70.89
2018-02-17T18:44:49.174Z,70.96
2018-02-17T18:45:51.668Z,71.90
2018-02-17T18:46:54.136Z,72.34
2018-02-17T18:47:56.611Z,72.64
2018-02-17T18:48:59.093Z,72.63
2018-02-17T18:50:01.581Z,73.03
2018-02-17T18:51:04.070Z,73.67
2018-02-17T18:52:06.547Z,73.87
2018-02-17T18:53:09.057Z,74.09
2018-02-17T18:54:11.557Z,74.42
2018-02-17T18:55:14.053Z,74.67
2018-02-17T18:56:16.570Z,74.40
2018-02-17T18:57:19.057Z,73.91
2018-02-17T18:58:21.519Z,73.56
2018-02-17T18:59:23.987Z,72.86
2018-02-17T19:00:26.455Z,72.73
2018-02-17T19:01:28.951Z,72.75
2018-02-17T19:02:31.419Z,72.99
2018-02-17T19:03:33.887Z,73.66
2018-02-17T19:04:36.378Z,73.78
2018-02-17T19:05:38.944Z,74.18
2018-02-17T19:06:41.612Z,74.30
2018-02-17T19:07:44.102Z,74.70
2018-02-17T19:08:46.575Z,74.80
2018-02-17T19:09:49.052Z,74.30
2018-02-17T19:10:51.535Z,74.45
2018-02-17T19:11:54.094Z,74.41
2018-02-17T19:12:56.602Z,74.21
2018-02-17T19:13:59.078Z,74.17
2018-02-17T19:15:01.556Z,74.66
2018-02-17T19:16:04.036Z,74.60
2018-02-17T19:17:06.527Z,74.45
2018-02-17T19:18:08.991Z,74.72
2018-02-17T19:19:11.459Z,75.17
2018-02-17T19:20:13.964Z,75.32
2018-02-17T19:21:16.463Z,75.95
2018-02-17T19:22:18.981Z,75.97
2018-02-17T19:23:21.454Z,75.33
2018-02-17T19:24:23.942Z,75.71
2018-02-17T19:25:26.435Z,76.44
2018-02-17T19:26:28.923Z,77.01
2018-02-17T19:27:31.439Z,77.47
2018-02-17T19:28:33.941Z,77.08
2018-02-17T19:29:37.217Z,76.50
2018-02-17T19:30:39.710Z,76.64
2018-02-17T19:31:42.200Z,76.55
2018-02-17T19:32:44.702Z,76.22